createdAt,value
2018-07-08T00:00:57.057Z,997.34
2018-07-08T00:01:57.086Z,997.33
2018-07-08T00:02:57.113Z,997.33
2018-07-08T00:03:57.139Z,997.28
2018-07-08T00:04:57.166Z,997.35
2018-07-08T00:05:57.195Z,997.36
2018-07-08T00:06:57.222Z,997.36
2018-07-08T00:07:57.251Z,997.38
2018-07-08T00:08:57.316Z,997.37
2018-07-08T00:09:57.303Z,997.37
2018-07-08T00:10:57.331Z,997.36
2018-07-08T00:11:57.358Z,997.38
2018-07-08T00:12:57.386Z,997.38
2018-07-08T00:13:57.415Z,997.40
2018-07-08T00:14:57.441Z,997.41
2018-07-08T00:15:57.467Z,997.44
2018-07-08T00:16:57.510Z,997.42
2018-07-08T00:17:57.524Z,997.40
2018-07-08T00:18:57.550Z,997.41
2018-07-08T00:19:57.578Z,997.43
2018-07-08T00:20:57.604Z,997.40
2018-07-08T00:21:57.632Z,997.41
2018-07-08T00:22:57.674Z,997.38
2018-07-08T00:23:57.685Z,997.40
2018-07-08T00:24:57.714Z,997.37
2018-07-08T00:25:57.744Z,997.42
2018-07-08T00:26:57.769Z,997.42
2018-07-08T00:27:57.795Z,997.39
2018-07-08T00:28:57.823Z,997.38
2018-07-08T00:29:57.852Z,997.37
2018-07-08T00:30:57.893Z,997.42
2018-07-08T00:31:57.904Z,997.43
2018-07-08T00:32:57.933Z,997.40
2018-07-08T00:33:57.960Z,997.39
2018-07-08T00:34:58.021Z,997.38
2018-07-08T00:35:58.015Z,997.38
2018-07-08T00:36:58.042Z,997.39
2018-07-08T00:37:58.070Z,997.41
2018-07-08T00:38:58.097Z,997.42
2018-07-08T00:39:58.205Z,997.46
2018-07-08T00:40:58.151Z,997.40
2018-07-08T00:41:58.212Z,997.42
2018-07-08T00:42:58.209Z,997.39
2018-07-08T00:43:58.233Z,997.36
2018-07-08T00:44:58.261Z,997.38
2018-07-08T00:45:58.288Z,997.37
2018-07-08T00:46:58.316Z,997.38
2018-07-08T00:47:58.343Z,997.37
2018-07-08T00:48:58.369Z,997.39
2018-07-08T00:49:58.398Z,997.40
2018-07-08T00:50:58.425Z,997.42
2018-07-08T00:51:58.452Z,997.41
2018-07-08T00:52:58.480Z,997.40
2018-07-08T00:53:58.507Z,997.41
2018-07-08T00:54:58.537Z,997.42
2018-07-08T00:55:58.561Z,997.42
2018-07-08T00:56:58.592Z,997.38
2018-07-08T00:57:58.616Z,997.41
2018-07-08T00:58:58.644Z,997.36
2018-07-08T00:59:58.673Z,997.38
2018-07-08T01:00:58.699Z,997.34
2018-07-08T01:01:58.727Z,997.37
2018-07-08T01:02:58.754Z,997.37
2018-07-08T01:03:58.820Z,997.38
2018-07-08T01:04:58.808Z,997.44
2018-07-08T01:05:58.835Z,997.44
2018-07-08T01:06:58.863Z,997.41
2018-07-08T01:07:58.890Z,997.41
2018-07-08T01:08:58.917Z,997.46
2018-07-08T01:09:58.945Z,997.43
2018-07-08T01:10:58.973Z,997.43
2018-07-08T01:11:59.027Z,997.43
2018-07-08T01:12:59.027Z,997.40
2018-07-08T01:13:59.054Z,997.40
2018-07-08T01:14:59.082Z,997.44
2018-07-08T01:15:59.109Z,997.44
2018-07-08T01:16:59.136Z,997.44
2018-07-08T01:17:59.164Z,997.44
2018-07-08T01:18:59.191Z,997.41
2018-07-08T01:19:59.219Z,997.43
2018-07-08T01:20:59.246Z,997.43
2018-07-08T01:21:59.273Z,997.43
2018-07-08T01:22:59.301Z,997.45
2018-07-08T01:23:59.328Z,997.42
2018-07-08T01:24:59.359Z,997.43
2018-07-08T01:25:59.384Z,997.40
2018-07-08T01:26:59.420Z,997.40
2018-07-08T01:27:59.444Z,997.41
2018-07-08T01:28:59.466Z,997.36
2018-07-08T01:29:59.494Z,997.38
2018-07-08T01:30:59.520Z,997.33
2018-07-08T01:31:59.547Z,997.36
2018-07-08T01:32:59.575Z,997.33
2018-07-08T01:33:59.607Z,997.31
2018-07-08T01:34:59.630Z,997.35
2018-07-08T01:35:59.657Z,997.35
2018-07-08T01:36:59.686Z,997.32
2018-07-08T01:37:59.750Z,997.34
2018-07-08T01:38:59.740Z,997.31
2018-07-08T01:39:59.793Z,997.38
2018-07-08T01:40:59.798Z,997.40
2018-07-08T01:41:59.821Z,997.35
2018-07-08T01:42:59.849Z,997.37
2018-07-08T01:43:59.877Z,997.39
2018-07-08T01:44:59.912Z,997.42
2018-07-08T01:45:59.936Z,997.35
2018-07-08T01:46:59.960Z,997.34
2018-07-08T01:47:59.985Z,997.37
2018-07-08T01:49:00.013Z,997.38
2018-07-08T01:50:00.048Z,997.38
2018-07-08T01:51:00.068Z,997.36
2018-07-08T01:52:00.097Z,997.40
2018-07-08T01:53:00.127Z,997.44
2018-07-08T01:54:00.159Z,997.40
2018-07-08T01:55:00.179Z,997.41
2018-07-08T01:56:00.205Z,997.45
2018-07-08T01:57:00.232Z,997.47
2018-07-08T01:58:00.261Z,997.48
2018-07-08T01:59:00.287Z,997.45
2018-07-08T02:00:00.315Z,997.47
2018-07-08T02:01:00.341Z,997.50
2018-07-08T02:02:00.372Z,997.51
2018-07-08T02:03:00.419Z,997.49
2018-07-08T02:04:00.425Z,997.47
2018-07-08T02:05:00.452Z,997.44
2018-07-08T02:06:00.478Z,997.45
2018-07-08T02:07:00.558Z,997.44
2018-07-08T02:08:00.532Z,997.43
2018-07-08T02:09:00.567Z,997.45
2018-07-08T02:10:00.588Z,997.41
2018-07-08T02:11:00.617Z,997.44
2018-07-08T02:12:00.649Z,997.42
2018-07-08T02:13:00.670Z,997.44
2018-07-08T02:14:00.701Z,997.48
2018-07-08T02:15:00.726Z,997.50
2018-07-08T02:16:00.752Z,997.51
2018-07-08T02:17:00.803Z,997.48
2018-07-08T02:18:00.808Z,997.49
2018-07-08T02:19:00.836Z,997.47
2018-07-08T02:20:00.861Z,997.47
2018-07-08T02:21:00.889Z,997.50
2018-07-08T02:22:00.917Z,997.51
2018-07-08T02:23:00.945Z,997.47
2018-07-08T02:24:00.972Z,997.54
2018-07-08T02:25:01.026Z,997.53
2018-07-08T02:26:01.062Z,997.57
2018-07-08T02:27:01.054Z,997.54
2018-07-08T02:28:01.085Z,997.57
2018-07-08T02:29:01.107Z,997.59
2018-07-08T02:30:01.141Z,997.64
2018-07-08T02:31:01.166Z,997.62
2018-07-08T02:32:01.196Z,997.64
2018-07-08T02:33:01.220Z,997.64
2018-07-08T02:34:01.279Z,997.66
2018-07-08T02:35:01.277Z,997.68
2018-07-08T02:36:01.301Z,997.66
2018-07-08T02:37:01.330Z,997.70
2018-07-08T02:38:01.356Z,997.66
2018-07-08T02:39:01.383Z,997.70
2018-07-08T02:40:01.458Z,997.64
2018-07-08T02:41:01.468Z,997.68
2018-07-08T02:42:01.466Z,997.69
2018-07-08T02:43:01.495Z,997.69
2018-07-08T02:44:01.519Z,997.71
2018-07-08T02:45:01.547Z,997.71
2018-07-08T02:46:01.579Z,997.71
2018-07-08T02:47:01.603Z,997.69
2018-07-08T02:48:01.629Z,997.69
2018-07-08T02:49:01.655Z,997.69
2018-07-08T02:50:01.692Z,997.66
2018-07-08T02:51:01.721Z,997.70
2018-07-08T02:52:01.739Z,997.68
2018-07-08T02:53:01.767Z,997.64
2018-07-08T02:54:02.627Z,997.69
2018-07-08T02:55:01.822Z,997.66
2018-07-08T02:56:01.849Z,997.66
2018-07-08T02:57:01.881Z,997.68
2018-07-08T02:58:01.907Z,997.68
2018-07-08T02:59:01.954Z,997.70
2018-07-08T03:00:01.957Z,997.70
2018-07-08T03:01:02.011Z,997.72
2018-07-08T03:02:02.012Z,997.67
2018-07-08T03:03:02.043Z,997.68
2018-07-08T03:04:02.080Z,997.70
2018-07-08T03:05:02.092Z,997.68
2018-07-08T03:06:02.120Z,997.67
2018-07-08T03:07:02.154Z,997.69
2018-07-08T03:08:02.181Z,997.68
2018-07-08T03:09:02.209Z,997.69
2018-07-08T03:10:02.232Z,997.70
2018-07-08T03:11:02.264Z,997.69
2018-07-08T03:12:02.288Z,997.69
2018-07-08T03:13:02.312Z,997.68
2018-07-08T03:14:02.342Z,997.70
2018-07-08T03:15:02.368Z,997.68
2018-07-08T03:16:02.400Z,997.69
2018-07-08T03:17:02.475Z,997.69
2018-07-08T03:18:02.454Z,997.75
2018-07-08T03:19:02.477Z,997.72
2018-07-08T03:20:02.502Z,997.76
2018-07-08T03:21:02.580Z,997.77
2018-07-08T03:22:02.560Z,997.75
2018-07-08T03:23:02.589Z,997.76
2018-07-08T03:24:02.612Z,997.73
2018-07-08T03:25:02.640Z,997.75
2018-07-08T03:26:02.672Z,997.78
2018-07-08T03:27:02.700Z,997.75
2018-07-08T03:28:02.723Z,997.81
2018-07-08T03:29:02.752Z,997.79
2018-07-08T03:30:02.779Z,997.79
2018-07-08T03:31:02.805Z,997.80
2018-07-08T03:32:02.830Z,997.85
2018-07-08T03:33:02.859Z,997.81
2018-07-08T03:34:02.888Z,997.80
2018-07-08T03:35:02.914Z,997.85
2018-07-08T03:36:02.944Z,997.85
2018-07-08T03:37:02.972Z,997.84
2018-07-08T03:38:03.002Z,997.88
2018-07-08T03:39:03.023Z,997.88
2018-07-08T03:40:03.086Z,997.87
2018-07-08T03:41:03.077Z,997.90
2018-07-08T03:42:03.105Z,997.90
2018-07-08T03:43:03.132Z,997.90
2018-07-08T03:44:03.160Z,997.95
2018-07-08T03:45:03.187Z,997.92
2018-07-08T03:46:03.214Z,997.96
2018-07-08T03:47:03.244Z,997.91
2018-07-08T03:48:03.269Z,997.95
2018-07-08T03:49:03.297Z,997.93
2018-07-08T03:50:03.324Z,998.01
2018-07-08T03:51:03.352Z,998.01
2018-07-08T03:52:03.378Z,998.01
2018-07-08T03:53:03.407Z,998.01
2018-07-08T03:54:03.437Z,997.99
2018-07-08T03:55:03.461Z,998.02
2018-07-08T03:56:03.490Z,998.06
2018-07-08T03:57:03.515Z,998.03
2018-07-08T03:58:03.544Z,998.05
2018-07-08T03:59:03.570Z,998.06
2018-07-08T04:00:03.597Z,998.06
2018-07-08T04:01:03.623Z,998.05
2018-07-08T04:02:03.651Z,998.06
2018-07-08T04:03:03.681Z,998.08
2018-07-08T04:04:03.706Z,998.08
2018-07-08T04:05:03.738Z,998.09
2018-07-08T04:06:03.762Z,998.10
2018-07-08T04:07:03.835Z,998.07
2018-07-08T04:08:03.825Z,998.09
2018-07-08T04:09:03.843Z,998.06
2018-07-08T04:10:03.870Z,998.09
2018-07-08T04:11:03.898Z,998.06
2018-07-08T04:12:03.925Z,998.06
2018-07-08T04:13:03.953Z,998.05
2018-07-08T04:14:04.008Z,998.04
2018-07-08T04:15:04.010Z,998.04
2018-07-08T04:16:04.034Z,998.06
2018-07-08T04:17:04.062Z,998.08
2018-07-08T04:18:04.091Z,998.02
2018-07-08T04:19:04.118Z,998.02
2018-07-08T04:20:04.159Z,998.06
2018-07-08T04:21:04.171Z,998.07
2018-07-08T04:22:04.202Z,998.05
2018-07-08T04:23:04.227Z,998.06
2018-07-08T04:24:04.252Z,998.04
2018-07-08T04:25:04.283Z,998.04
2018-07-08T04:26:04.308Z,998.07
2018-07-08T04:27:04.336Z,998.08
2018-07-08T04:28:04.365Z,998.10
2018-07-08T04:29:04.414Z,998.11
2018-07-08T04:30:04.447Z,998.08
2018-07-08T04:31:04.445Z,998.10
2018-07-08T04:32:04.471Z,998.12
2018-07-08T04:33:04.501Z,998.10
2018-07-08T04:34:04.529Z,998.13
2018-07-08T04:35:04.557Z,998.08
2018-07-08T04:36:04.582Z,998.08
2018-07-08T04:37:04.611Z,998.09
2018-07-08T04:38:04.638Z,998.13
2018-07-08T04:39:04.664Z,998.14
2018-07-08T04:40:04.690Z,998.11
2018-07-08T04:41:04.718Z,998.14
2018-07-08T04:42:04.746Z,998.13
2018-07-08T04:43:04.774Z,998.14
2018-07-08T04:44:04.832Z,998.13
2018-07-08T04:45:04.829Z,998.16
2018-07-08T04:46:04.855Z,998.16
2018-07-08T04:47:04.895Z,998.19
2018-07-08T04:48:04.910Z,998.18
2018-07-08T04:49:04.940Z,998.16
2018-07-08T04:50:04.984Z,998.17
2018-07-08T04:51:05.050Z,998.22
2018-07-08T04:52:05.066Z,998.22
2018-07-08T04:53:05.048Z,998.20
2018-07-08T04:54:05.076Z,998.25
2018-07-08T04:55:05.115Z,998.24
2018-07-08T04:56:05.129Z,998.24
2018-07-08T04:57:05.157Z,998.24
2018-07-08T04:58:05.184Z,998.27
2018-07-08T04:59:05.211Z,998.26
2018-07-08T05:00:05.239Z,998.28
2018-07-08T05:01:05.267Z,998.29
2018-07-08T05:02:05.294Z,998.30
2018-07-08T05:03:05.324Z,998.29
2018-07-08T05:04:05.358Z,998.27
2018-07-08T05:05:05.385Z,998.27
2018-07-08T05:06:05.404Z,998.28
2018-07-08T05:07:05.443Z,998.35
2018-07-08T05:08:05.457Z,998.34
2018-07-08T05:09:05.492Z,998.35
2018-07-08T05:10:05.516Z,998.34
2018-07-08T05:11:05.540Z,998.36
2018-07-08T05:12:05.566Z,998.35
2018-07-08T05:13:05.595Z,998.38
2018-07-08T05:14:05.622Z,998.40
2018-07-08T05:15:05.650Z,998.36
2018-07-08T05:16:05.676Z,998.40
2018-07-08T05:17:05.704Z,998.40
2018-07-08T05:18:05.734Z,998.44
2018-07-08T05:19:05.760Z,998.44
2018-07-08T05:20:05.788Z,998.46
2018-07-08T05:21:05.814Z,998.48
2018-07-08T05:22:05.843Z,998.48
2018-07-08T05:23:05.867Z,998.47
2018-07-08T05:24:05.898Z,998.47
2018-07-08T05:25:05.922Z,998.51
2018-07-08T05:26:05.950Z,998.47
2018-07-08T05:27:05.977Z,998.52
2018-07-08T05:28:06.059Z,998.50
2018-07-08T05:29:06.036Z,998.52
2018-07-08T05:30:06.061Z,998.53
2018-07-08T05:31:06.090Z,998.53
2018-07-08T05:32:06.113Z,998.50
2018-07-08T05:33:06.140Z,998.52
2018-07-08T05:34:06.169Z,998.51
2018-07-08T05:35:06.205Z,998.50
2018-07-08T05:36:06.222Z,998.51
2018-07-08T05:37:06.252Z,998.54
2018-07-08T05:38:06.278Z,998.50
2018-07-08T05:39:06.309Z,998.54
2018-07-08T05:40:06.334Z,998.55
2018-07-08T05:41:06.361Z,998.57
2018-07-08T05:42:06.390Z,998.58
2018-07-08T05:43:06.415Z,998.56
2018-07-08T05:44:06.442Z,998.56
2018-07-08T05:45:06.470Z,998.57
2018-07-08T05:46:06.498Z,998.55
2018-07-08T05:47:06.524Z,998.54
2018-07-08T05:48:06.553Z,998.54
2018-07-08T05:49:06.579Z,998.58
2018-07-08T05:50:06.617Z,998.59
2018-07-08T05:51:06.638Z,998.57
2018-07-08T05:52:06.660Z,998.58
2018-07-08T05:53:06.688Z,998.60
2018-07-08T05:54:06.721Z,998.62
2018-07-08T05:55:06.746Z,998.62
2018-07-08T05:56:06.772Z,998.65
2018-07-08T05:57:06.800Z,998.63
2018-07-08T05:58:06.826Z,998.64
2018-07-08T05:59:06.860Z,998.64
2018-07-08T06:00:06.881Z,998.62
2018-07-08T06:01:06.946Z,998.64
2018-07-08T06:02:06.977Z,998.64
2018-07-08T06:03:06.963Z,998.66
2018-07-08T06:04:06.991Z,998.65
2018-07-08T06:05:07.023Z,998.66
2018-07-08T06:06:07.045Z,998.66
2018-07-08T06:07:07.074Z,998.66
2018-07-08T06:08:07.100Z,998.67
2018-07-08T06:09:07.130Z,998.66
2018-07-08T06:10:07.158Z,998.67
2018-07-08T06:11:07.182Z,998.70
2018-07-08T06:12:07.211Z,998.66
2018-07-08T06:13:07.237Z,998.69
2018-07-08T06:14:07.264Z,998.69
2018-07-08T06:15:07.294Z,998.65
2018-07-08T06:16:07.340Z,998.65
2018-07-08T06:17:07.347Z,998.66
2018-07-08T06:18:07.381Z,998.62
2018-07-08T06:19:07.406Z,998.65
2018-07-08T06:20:07.431Z,998.64
2018-07-08T06:21:07.455Z,998.64
2018-07-08T06:22:07.485Z,998.61
2018-07-08T06:23:07.511Z,998.63
2018-07-08T06:24:07.561Z,998.63
2018-07-08T06:25:07.566Z,998.58
2018-07-08T06:26:07.600Z,998.63
2018-07-08T06:27:07.625Z,998.65
2018-07-08T06:28:07.688Z,998.62
2018-07-08T06:29:07.676Z,998.61
2018-07-08T06:30:07.704Z,998.62
2018-07-08T06:31:07.731Z,998.64
2018-07-08T06:32:07.761Z,998.63
2018-07-08T06:33:07.792Z,998.73
2018-07-08T06:34:07.816Z,998.70
2018-07-08T06:35:07.870Z,998.70
2018-07-08T06:36:07.868Z,998.73
2018-07-08T06:37:07.904Z,998.71
2018-07-08T06:38:07.922Z,998.73
2018-07-08T06:39:08.003Z,998.74
2018-07-08T06:40:07.976Z,998.68
2018-07-08T06:41:08.005Z,998.71
2018-07-08T06:42:08.032Z,998.70
2018-07-08T06:43:08.066Z,998.71
2018-07-08T06:44:08.087Z,998.68
2018-07-08T06:45:08.116Z,998.71
2018-07-08T06:46:08.146Z,998.71
2018-07-08T06:47:08.168Z,998.73
2018-07-08T06:48:08.200Z,998.69
2018-07-08T06:49:08.224Z,998.76
2018-07-08T06:50:08.252Z,998.72
2018-07-08T06:51:08.279Z,998.75
2018-07-08T06:52:08.357Z,998.75
2018-07-08T06:53:08.334Z,998.77
2018-07-08T06:54:08.362Z,998.77
2018-07-08T06:55:08.389Z,998.74
2018-07-08T06:56:08.415Z,998.80
2018-07-08T06:57:08.446Z,998.77
2018-07-08T06:58:08.471Z,998.81
2018-07-08T06:59:08.500Z,998.81
2018-07-08T07:00:08.524Z,998.75
2018-07-08T07:01:08.554Z,998.73
2018-07-08T07:02:08.579Z,998.78
2018-07-08T07:03:08.609Z,998.80
2018-07-08T07:04:08.655Z,998.78
2018-07-08T07:05:08.669Z,998.79
2018-07-08T07:06:08.691Z,998.80
2018-07-08T07:07:08.739Z,998.82
2018-07-08T07:08:08.744Z,998.80
2018-07-08T07:09:08.772Z,998.83
2018-07-08T07:10:08.839Z,998.82
2018-07-08T07:11:08.827Z,998.82
2018-07-08T07:12:08.853Z,998.84
2018-07-08T07:13:08.881Z,998.84
2018-07-08T07:14:08.913Z,998.84
2018-07-08T07:15:08.936Z,998.82
2018-07-08T07:16:08.966Z,998.85
2018-07-08T07:17:08.994Z,998.88
2018-07-08T07:18:09.021Z,998.87
2018-07-08T07:19:09.049Z,998.95
2018-07-08T07:20:09.073Z,998.89
2018-07-08T07:21:09.100Z,998.88
2018-07-08T07:22:09.129Z,998.90
2018-07-08T07:23:09.187Z,998.94
2018-07-08T07:24:09.183Z,998.92
2018-07-08T07:25:09.213Z,998.90
2018-07-08T07:26:09.240Z,998.94
2018-07-08T07:27:09.265Z,998.97
2018-07-08T07:28:09.297Z,998.96
2018-07-08T07:29:09.319Z,998.99
2018-07-08T07:30:09.354Z,998.97
2018-07-08T07:31:09.404Z,998.96
2018-07-08T07:32:09.401Z,998.97
2018-07-08T07:33:09.452Z,999.00
2018-07-08T07:34:09.456Z,999.00
2018-07-08T07:35:09.484Z,998.99
2018-07-08T07:36:09.511Z,998.97
2018-07-08T07:37:09.613Z,998.98
2018-07-08T07:38:09.571Z,999.02
2018-07-08T07:39:09.595Z,999.02
2018-07-08T07:40:09.621Z,999.06
2018-07-08T07:41:09.648Z,999.00
2018-07-08T07:42:09.676Z,999.04
2018-07-08T07:43:09.705Z,999.01
2018-07-08T07:44:09.731Z,999.09
2018-07-08T07:45:09.758Z,999.06
2018-07-08T07:46:09.787Z,999.06
2018-07-08T07:47:09.815Z,999.04
2018-07-08T07:48:09.841Z,999.11
2018-07-08T07:49:09.868Z,999.07
2018-07-08T07:50:09.896Z,999.08
2018-07-08T07:51:09.962Z,999.09
2018-07-08T07:52:09.950Z,999.10
2018-07-08T07:53:09.977Z,999.06
2018-07-08T07:54:10.007Z,999.07
2018-07-08T07:55:10.051Z,999.06
2018-07-08T07:56:10.060Z,999.06
2018-07-08T07:57:10.089Z,999.02
2018-07-08T07:58:10.116Z,999.06
2018-07-08T07:59:10.180Z,999.05
2018-07-08T08:00:10.170Z,999.02
2018-07-08T08:01:10.198Z,999.07
2018-07-08T08:02:10.226Z,999.09
2018-07-08T08:03:10.253Z,999.07
2018-07-08T08:04:10.280Z,999.10
2018-07-08T08:05:10.308Z,999.09
2018-07-08T08:06:10.339Z,999.11
2018-07-08T08:07:10.362Z,999.14
2018-07-08T08:08:10.389Z,999.12
2018-07-08T08:09:10.417Z,999.16
2018-07-08T08:10:10.445Z,999.16
2018-07-08T08:11:10.473Z,999.16
2018-07-08T08:12:10.501Z,999.13
2018-07-08T08:13:10.526Z,999.15
2018-07-08T08:14:10.555Z,999.16
2018-07-08T08:15:10.582Z,999.15
2018-07-08T08:16:10.610Z,999.14
2018-07-08T08:17:10.637Z,999.12
2018-07-08T08:18:10.664Z,999.15
2018-07-08T08:19:10.692Z,999.15
2018-07-08T08:20:10.719Z,999.19
2018-07-08T08:21:10.851Z,999.18
2018-07-08T08:22:10.774Z,999.14
2018-07-08T08:23:10.803Z,999.20
2018-07-08T08:24:10.839Z,999.22
2018-07-08T08:25:10.856Z,999.26
2018-07-08T08:26:10.906Z,999.20
2018-07-08T08:27:10.911Z,999.24
2018-07-08T08:28:10.938Z,999.24
2018-07-08T08:29:10.965Z,999.22
2018-07-08T08:30:10.994Z,999.22
2018-07-08T08:31:11.063Z,999.25
2018-07-08T08:32:11.048Z,999.27
2018-07-08T08:33:11.075Z,999.25
2018-07-08T08:34:11.104Z,999.33
2018-07-08T08:35:11.132Z,999.29
2018-07-08T08:36:11.158Z,999.32
2018-07-08T08:37:11.193Z,999.34
2018-07-08T08:38:11.268Z,999.29
2018-07-08T08:39:11.243Z,999.31
2018-07-08T08:40:11.268Z,999.33
2018-07-08T08:41:11.294Z,999.33
2018-07-08T08:42:11.323Z,999.33
2018-07-08T08:43:11.349Z,999.33
2018-07-08T08:44:11.377Z,999.28
2018-07-08T08:45:11.408Z,999.29
2018-07-08T08:46:11.434Z,999.33
2018-07-08T08:47:11.461Z,999.35
2018-07-08T08:48:11.487Z,999.34
2018-07-08T08:49:11.514Z,999.33
2018-07-08T08:50:11.541Z,999.35
2018-07-08T08:51:11.569Z,999.33
2018-07-08T08:52:11.614Z,999.33
2018-07-08T08:53:11.671Z,999.35
2018-07-08T08:54:11.653Z,999.39
2018-07-08T08:55:11.680Z,999.36
2018-07-08T08:56:11.709Z,999.36
2018-07-08T08:57:11.736Z,999.31
2018-07-08T08:58:11.764Z,999.37
2018-07-08T08:59:11.788Z,999.36
2018-07-08T09:00:11.816Z,999.39
2018-07-08T09:01:11.843Z,999.37
2018-07-08T09:02:11.871Z,999.39
2018-07-08T09:03:11.900Z,999.35
2018-07-08T09:04:11.926Z,999.37
2018-07-08T09:05:11.965Z,999.40
2018-07-08T09:06:11.981Z,999.43
2018-07-08T09:07:12.010Z,999.44
2018-07-08T09:08:12.060Z,999.42
2018-07-08T09:09:12.063Z,999.47
2018-07-08T09:10:12.090Z,999.42
2018-07-08T09:11:12.118Z,999.50
2018-07-08T09:12:12.144Z,999.49
2018-07-08T09:13:12.207Z,999.48
2018-07-08T09:14:12.200Z,999.50
2018-07-08T09:15:12.229Z,999.47
2018-07-08T09:16:12.255Z,999.49
2018-07-08T09:17:12.312Z,999.50
2018-07-08T09:18:12.310Z,999.50
2018-07-08T09:19:12.337Z,999.48
2018-07-08T09:20:12.375Z,999.47
2018-07-08T09:21:12.393Z,999.48
2018-07-08T09:22:12.428Z,999.52
2018-07-08T09:23:12.448Z,999.50
2018-07-08T09:24:12.474Z,999.49
2018-07-08T09:25:12.501Z,999.48
2018-07-08T09:26:12.530Z,999.47
2018-07-08T09:27:12.557Z,999.46
2018-07-08T09:28:12.588Z,999.48
2018-07-08T09:29:12.633Z,999.48
2018-07-08T09:30:12.638Z,999.47
2018-07-08T09:31:12.667Z,999.42
2018-07-08T09:32:12.693Z,999.50
2018-07-08T09:33:12.721Z,999.52
2018-07-08T09:34:12.749Z,999.49
2018-07-08T09:35:12.776Z,999.48
2018-07-08T09:36:12.806Z,999.50
2018-07-08T09:37:12.849Z,999.46
2018-07-08T09:38:12.859Z,999.50
2018-07-08T09:39:13.050Z,999.50
2018-07-08T09:40:12.949Z,999.50
2018-07-08T09:41:12.940Z,999.49
2018-07-08T09:42:12.968Z,999.49
2018-07-08T09:43:12.997Z,999.46
2018-07-08T09:44:13.029Z,999.51
2018-07-08T09:45:13.050Z,999.51
2018-07-08T09:46:13.078Z,999.51
2018-07-08T09:47:13.106Z,999.49
2018-07-08T09:48:13.133Z,999.50
2018-07-08T09:49:13.182Z,999.51
2018-07-08T09:50:13.226Z,999.51
2018-07-08T09:51:13.215Z,999.55
2018-07-08T09:52:13.241Z,999.55
2018-07-08T09:53:13.269Z,999.55
2018-07-08T09:54:13.297Z,999.58
2018-07-08T09:55:13.325Z,999.59
2018-07-08T09:56:13.352Z,999.60
2018-07-08T09:57:13.391Z,999.62
2018-07-08T09:58:13.411Z,999.59
2018-07-08T09:59:13.434Z,999.65
2018-07-08T10:00:13.461Z,999.67
2018-07-08T10:01:13.491Z,999.69
2018-07-08T10:02:13.517Z,999.68
2018-07-08T10:03:13.544Z,999.70
2018-07-08T10:04:13.572Z,999.69
2018-07-08T10:05:13.598Z,999.68
2018-07-08T10:06:13.629Z,999.72
2018-07-08T10:07:13.656Z,999.70
2018-07-08T10:08:13.681Z,999.79
2018-07-08T10:09:13.709Z,999.73
2018-07-08T10:10:13.747Z,999.75
2018-07-08T10:11:13.764Z,999.76
2018-07-08T10:12:13.790Z,999.76
2018-07-08T10:13:13.819Z,999.74
2018-07-08T10:14:13.846Z,999.74
2018-07-08T10:15:13.873Z,999.73
2018-07-08T10:16:13.960Z,999.78
2018-07-08T10:17:13.929Z,999.78
2018-07-08T10:18:13.957Z,999.79
2018-07-08T10:19:13.983Z,999.78
2018-07-08T10:20:14.043Z,999.78
2018-07-08T10:21:14.049Z,999.84
2018-07-08T10:22:14.065Z,999.82
2018-07-08T10:23:14.093Z,999.80
2018-07-08T10:24:14.120Z,999.80
2018-07-08T10:25:14.208Z,999.84
2018-07-08T10:26:14.175Z,999.82
2018-07-08T10:27:14.202Z,999.79
2018-07-08T10:28:14.232Z,999.80
2018-07-08T10:29:14.257Z,999.80
2018-07-08T10:30:14.296Z,999.80
2018-07-08T10:31:14.316Z,999.85
2018-07-08T10:32:14.346Z,999.84
2018-07-08T10:33:14.367Z,999.83
2018-07-08T10:34:14.395Z,999.86
2018-07-08T10:35:14.422Z,999.87
2018-07-08T10:36:14.450Z,999.86
2018-07-08T10:37:14.476Z,999.88
2018-07-08T10:38:14.546Z,999.83
2018-07-08T10:39:14.532Z,999.85
2018-07-08T10:40:14.559Z,999.84
2018-07-08T10:41:14.587Z,999.85
2018-07-08T10:42:14.614Z,999.87
2018-07-08T10:43:14.708Z,999.85
2018-07-08T10:44:14.668Z,999.82
2018-07-08T10:45:14.696Z,999.83
2018-07-08T10:46:14.723Z,999.86
2018-07-08T10:47:14.804Z,999.85
2018-07-08T10:48:14.806Z,999.84
2018-07-08T10:49:14.805Z,999.82
2018-07-08T10:50:14.833Z,999.81
2018-07-08T10:51:14.860Z,999.79
2018-07-08T10:52:14.887Z,999.80
2018-07-08T10:53:14.915Z,999.80
2018-07-08T10:54:14.943Z,999.81
2018-07-08T10:55:15.003Z,999.83
2018-07-08T10:56:14.997Z,999.82
2018-07-08T10:57:15.025Z,999.82
2018-07-08T10:58:15.052Z,999.80
2018-07-08T10:59:15.082Z,999.86
2018-07-08T11:00:15.107Z,999.84
2018-07-08T11:01:15.133Z,999.83
2018-07-08T11:02:15.205Z,999.79
2018-07-08T11:03:15.189Z,999.80
2018-07-08T11:04:15.216Z,999.79
2018-07-08T11:05:15.243Z,999.84
2018-07-08T11:06:15.272Z,999.77
2018-07-08T11:07:15.330Z,999.81
2018-07-08T11:08:15.325Z,999.79
2018-07-08T11:09:15.356Z,999.82
2018-07-08T11:10:15.381Z,999.82
2018-07-08T11:11:15.409Z,999.80
2018-07-08T11:12:15.435Z,999.80
2018-07-08T11:13:15.462Z,999.77
2018-07-08T11:14:15.491Z,999.77
2018-07-08T11:15:15.538Z,999.79
2018-07-08T11:16:15.546Z,999.76
2018-07-08T11:17:15.572Z,999.76
2018-07-08T11:18:15.600Z,999.77
2018-07-08T11:19:15.627Z,999.78
2018-07-08T11:20:15.655Z,999.74
2018-07-08T11:21:15.682Z,999.77
2018-07-08T11:22:15.710Z,999.76
2018-07-08T11:23:15.746Z,999.74
2018-07-08T11:24:15.784Z,999.76
2018-07-08T11:25:15.792Z,999.74
2018-07-08T11:26:15.820Z,999.74
2018-07-08T11:27:15.847Z,999.73
2018-07-08T11:28:15.878Z,999.72
2018-07-08T11:29:15.902Z,999.70
2018-07-08T11:30:15.929Z,999.72
2018-07-08T11:31:15.957Z,999.72
2018-07-08T11:32:15.984Z,999.72
2018-07-08T11:33:16.013Z,999.71
2018-07-08T11:34:16.039Z,999.76
2018-07-08T11:35:16.066Z,999.70
2018-07-08T11:36:16.093Z,999.73
2018-07-08T11:37:16.124Z,999.72
2018-07-08T11:38:16.149Z,999.78
2018-07-08T11:39:16.177Z,999.74
2018-07-08T11:40:16.203Z,999.77
2018-07-08T11:41:16.231Z,999.76
2018-07-08T11:42:16.259Z,999.78
2018-07-08T11:43:16.287Z,999.76
2018-07-08T11:44:16.313Z,999.77
2018-07-08T11:45:16.341Z,999.76
2018-07-08T11:46:16.369Z,999.77
2018-07-08T11:47:16.396Z,999.75
2018-07-08T11:48:16.423Z,999.78
2018-07-08T11:49:16.451Z,999.78
2018-07-08T11:50:16.510Z,999.76
2018-07-08T11:51:16.506Z,999.78
2018-07-08T11:52:16.533Z,999.78
2018-07-08T11:53:16.563Z,999.75
2018-07-08T11:54:16.589Z,999.76
2018-07-08T11:55:16.667Z,999.75
2018-07-08T11:56:16.643Z,999.76
2018-07-08T11:57:16.671Z,999.74
2018-07-08T11:58:16.701Z,999.77
2018-07-08T11:59:16.725Z,999.79
2018-07-08T12:00:16.753Z,999.79
2018-07-08T12:01:16.795Z,999.77
2018-07-08T12:02:16.809Z,999.75
2018-07-08T12:03:16.836Z,999.77
2018-07-08T12:04:16.866Z,999.79
2018-07-08T12:05:16.890Z,999.77
2018-07-08T12:06:16.978Z,999.73
2018-07-08T12:07:16.946Z,999.76
2018-07-08T12:08:16.973Z,999.74
2018-07-08T12:09:17.000Z,999.76
2018-07-08T12:10:17.029Z,999.77
2018-07-08T12:11:17.058Z,999.75
2018-07-08T12:12:17.082Z,999.75
2018-07-08T12:13:17.110Z,999.75
2018-07-08T12:14:17.138Z,999.73
2018-07-08T12:15:17.165Z,999.77
2018-07-08T12:16:17.224Z,999.74
2018-07-08T12:17:17.220Z,999.71
2018-07-08T12:18:17.248Z,999.73
2018-07-08T12:19:17.275Z,999.72
2018-07-08T12:20:17.349Z,999.73
2018-07-08T12:21:17.350Z,999.74
2018-07-08T12:22:17.359Z,999.71
2018-07-08T12:23:17.400Z,999.74
2018-07-08T12:24:17.412Z,999.75
2018-07-08T12:25:17.439Z,999.75
2018-07-08T12:26:17.467Z,999.75
2018-07-08T12:27:17.495Z,999.76
2018-07-08T12:28:17.522Z,999.76
2018-07-08T12:29:17.551Z,999.79